Time;durP1;ratioP1;P1;durP2;ratioP2;P2;SDS_P1;SDS_P2;PMS_P1;PMS_P2;Temp;Humidity;BMP_temperature;BMP_pressure;BME280_temperature;BME280_humidity;BME280_pressure;Samples;Min_cycle;Max_cycle;Signal;HPM_P1;HPM_P2
2022/04/14 00:00:17;;;;;;;7.60;2.10;;;;;;;;;;5114471;28;20668;-77
2022/04/14 00:02:45;;;;;;;3.40;2.20;;;;;;;;;;5117267;28;20343;-77
2022/04/14 00:05:14;;;;;;;6.73;2.17;;;;;;;;;;5108336;27;20193;-76
2022/04/14 00:07:44;;;;;;;4.80;2.87;;;;;;;;;;5114773;27;20196;-77
2022/04/14 00:10:12;;;;;;;4.63;2.40;;;;;;;;;;5114744;28;20214;-77
2022/04/14 00:12:40;;;;;;;6.50;2.57;;;;;;;;;;5114838;28;20721;-77
2022/04/14 00:15:10;;;;;;;5.67;2.30;;;;;;;;;;5117547;28;20658;-77
2022/04/14 00:17:38;;;;;;;5.47;2.00;;;;;;;;;;5112378;27;20205;-76
2022/04/14 00:20:08;;;;;;;3.90;2.20;;;;;;;;;;5117369;28;20204;-77
2022/04/14 00:22:37;;;;;;;3.07;2.10;;;;;;;;;;5118599;28;20197;-77
2022/04/14 00:25:06;;;;;;;6.33;2.50;;;;;;;;;;5117346;28;20201;-76
2022/04/14 00:27:34;;;;;;;6.63;2.67;;;;;;;;;;5120913;27;20731;-77
2022/04/14 00:30:02;;;;;;;3.90;2.40;;;;;;;;;;5118599;28;20303;-77
2022/04/14 00:32:31;;;;;;;4.70;2.27;;;;;;;;;;5118635;28;20232;-77
2022/04/14 00:34:59;;;;;;;5.30;2.40;;;;;;;;;;5118182;28;20208;-76
2022/04/14 00:37:27;;;;;;;8.33;2.23;;;;;;;;;;5118662;28;20204;-77
2022/04/14 00:39:56;;;;;;;4.47;2.40;;;;;;;;;;5116979;28;20210;-77
2022/04/14 00:42:24;;;;;;;6.80;2.80;;;;;;;;;;5117272;28;20201;-76
2022/04/14 00:44:52;;;;;;;5.97;2.23;;;;;;;;;;5118449;28;20215;-77
2022/04/14 00:47:20;;;;;;;4.00;1.73;;;;;;;;;;5118184;28;20224;-77
2022/04/14 00:49:48;;;;;;;6.37;2.40;;;;;;;;;;5118418;28;20211;-77
2022/04/14 00:52:16;;;;;;;6.07;2.07;;;;;;;;;;5118379;28;20217;-77
2022/04/14 00:54:44;;;;;;;3.83;2.20;;;;;;;;;;5111312;28;20209;-77
2022/04/14 00:57:14;;;;;;;5.20;2.60;;;;;;;;;;5116056;28;20220;-77
2022/04/14 00:59:42;;;;;;;2.27;1.77;;;;;;;;;;5110127;28;20201;-76
2022/04/14 01:02:10;;;;;;;2.70;1.80;;;;;;;;;;5117852;28;20243;-77
2022/04/14 01:04:39;;;;;;;7.70;2.20;;;;;;;;;;5118292;28;20211;-77
2022/04/14 01:07:07;;;;;;;6.30;2.27;;;;;;;;;;5117898;28;20674;-77
2022/04/14 01:09:36;;;;;;;4.47;2.27;;;;;;;;;;5117103;28;20247;-77
2022/04/14 01:12:05;;;;;;;3.50;2.20;;;;;;;;;;5117015;28;20690;-76
2022/04/14 01:14:35;;;;;;;5.63;2.80;;;;;;;;;;5117884;28;20296;-77
2022/04/14 01:17:04;;;;;;;5.43;2.37;;;;;;;;;;5117894;28;20303;-77
2022/04/14 01:19:32;;;;;;;5.07;2.10;;;;;;;;;;5113335;28;20287;-77
2022/04/14 01:22:02;;;;;;;8.17;2.37;;;;;;;;;;5118000;28;20205;-76
2022/04/14 01:24:31;;;;;;;3.03;1.93;;;;;;;;;;5117870;28;20204;-77
2022/04/14 01:27:00;;;;;;;8.10;3.53;;;;;;;;;;5109680;28;20220;-77
2022/04/14 01:29:28;;;;;;;6.67;1.97;;;;;;;;;;5116908;28;20200;-77
2022/04/14 01:31:57;;;;;;;3.13;2.37;;;;;;;;;;5117874;28;20692;-76
2022/04/14 01:34:25;;;;;;;7.60;2.40;;;;;;;;;;5117965;28;20228;-76
2022/04/14 01:36:53;;;;;;;5.23;2.53;;;;;;;;;;5117516;28;20221;-77
2022/04/14 01:39:21;;;;;;;5.07;2.33;;;;;;;;;;5115003;28;20192;-76
2022/04/14 01:41:50;;;;;;;3.87;2.30;;;;;;;;;;5117460;28;20219;-76
2022/04/14 01:44:18;;;;;;;4.13;2.60;;;;;;;;;;5117539;28;20230;-76
2022/04/14 01:46:46;;;;;;;4.23;2.33;;;;;;;;;;5117758;28;20227;-77
2022/04/14 01:49:14;;;;;;;6.80;2.67;;;;;;;;;;5117484;28;20205;-77
2022/04/14 01:51:42;;;;;;;8.77;2.70;;;;;;;;;;5116858;28;20235;-77
2022/04/14 01:54:10;;;;;;;6.50;2.47;;;;;;;;;;5117847;28;20220;-77
2022/04/14 01:56:38;;;;;;;4.27;2.70;;;;;;;;;;5117546;28;20224;-77
2022/04/14 01:59:08;;;;;;;5.67;2.97;;;;;;;;;;5116348;28;20201;-77
2022/04/14 02:01:36;;;;;;;5.37;2.20;;;;;;;;;;5118035;28;20215;-77
2022/04/14 02:04:05;;;;;;;6.77;2.80;;;;;;;;;;5118002;28;20197;-77
2022/04/14 02:06:33;;;;;;;6.70;2.93;;;;;;;;;;5117916;28;20292;-77
2022/04/14 02:09:01;;;;;;;8.60;2.90;;;;;;;;;;5117825;28;20216;-77
2022/04/14 02:11:29;;;;;;;8.50;2.77;;;;;;;;;;5113597;28;20198;-77
2022/04/14 02:13:57;;;;;;;4.60;2.20;;;;;;;;;;5105691;28;20228;-77
2022/04/14 02:16:26;;;;;;;5.37;2.60;;;;;;;;;;5117102;28;20224;-77
2022/04/14 02:18:54;;;;;;;4.63;2.77;;;;;;;;;;5112585;28;20687;-77
2022/04/14 02:21:22;;;;;;;5.57;2.37;;;;;;;;;;5120226;28;20287;-77
2022/04/14 02:23:50;;;;;;;5.00;2.60;;;;;;;;;;5120993;28;20205;-77
2022/04/14 02:26:19;;;;;;;7.30;2.60;;;;;;;;;;5121032;28;20585;-77
2022/04/14 02:28:47;;;;;;;4.37;2.80;;;;;;;;;;5119900;28;20197;-77
2022/04/14 02:31:15;;;;;;;7.33;2.80;;;;;;;;;;5120951;28;20205;-77
2022/04/14 02:33:44;;;;;;;5.70;2.80;;;;;;;;;;5121188;28;20282;-77
2022/04/14 02:36:12;;;;;;;5.50;2.60;;;;;;;;;;5120961;28;20224;-77
2022/04/14 02:38:43;;;;;;;4.27;2.13;;;;;;;;;;5121465;28;20209;-77
2022/04/14 02:41:11;;;;;;;9.27;3.10;;;;;;;;;;5121542;28;20292;-76
2022/04/14 02:43:39;;;;;;;7.57;2.70;;;;;;;;;;5119527;28;20199;-77
2022/04/14 02:46:07;;;;;;;7.90;2.80;;;;;;;;;;5120894;28;20308;-77
2022/04/14 02:48:35;;;;;;;4.23;2.77;;;;;;;;;;5120735;28;20633;-77
2022/04/14 02:51:05;;;;;;;8.63;2.50;;;;;;;;;;5120745;28;20660;-77
2022/04/14 02:53:33;;;;;;;6.00;2.63;;;;;;;;;;5119702;27;20227;-77
2022/04/14 02:56:01;;;;;;;6.07;2.90;;;;;;;;;;5120556;28;20227;-76
2022/04/14 02:58:29;;;;;;;7.97;3.07;;;;;;;;;;5115813;28;20566;-77
2022/04/14 03:00:57;;;;;;;5.30;3.10;;;;;;;;;;5110141;28;20201;-77
2022/04/14 03:03:26;;;;;;;5.07;2.57;;;;;;;;;;5120152;28;20307;-77
2022/04/14 03:05:54;;;;;;;4.87;2.90;;;;;;;;;;5120403;28;20285;-77
2022/04/14 03:08:23;;;;;;;2.93;2.43;;;;;;;;;;5120307;28;20207;-77
2022/04/14 03:10:53;;;;;;;4.90;2.63;;;;;;;;;;5120215;28;20211;-77
2022/04/14 03:13:21;;;;;;;3.87;2.50;;;;;;;;;;5118798;28;20197;-77
2022/04/14 03:15:50;;;;;;;7.50;2.70;;;;;;;;;;5119917;28;20229;-76
2022/04/14 03:18:19;;;;;;;6.27;3.20;;;;;;;;;;5118967;27;20205;-76
2022/04/14 03:20:47;;;;;;;6.17;2.87;;;;;;;;;;5118753;28;20251;-74
2022/04/14 03:23:15;;;;;;;5.90;3.00;;;;;;;;;;5118674;28;20203;-73
2022/04/14 03:25:45;;;;;;;11.67;3.50;;;;;;;;;;5116019;28;20223;-74
2022/04/14 03:28:13;;;;;;;4.73;3.03;;;;;;;;;;5113684;28;20197;-75
2022/04/14 03:30:41;;;;;;;5.63;3.20;;;;;;;;;;5117648;28;20288;-75
2022/04/14 03:33:09;;;;;;;7.53;3.30;;;;;;;;;;5118235;28;20260;-74
2022/04/14 03:35:37;;;;;;;4.47;3.10;;;;;;;;;;5118752;28;20233;-75
2022/04/14 03:38:06;;;;;;;7.47;2.93;;;;;;;;;;5112807;28;20201;-74
2022/04/14 03:40:55;;;;;;;9.23;3.87;;;;;;;;;;5117682;28;20193;-75
2022/04/14 03:43:23;;;;;;;9.07;4.33;;;;;;;;;;5115585;28;20564;-76
2022/04/14 03:45:52;;;;;;;8.80;3.90;;;;;;;;;;5118375;28;20224;-77
2022/04/14 03:48:20;;;;;;;8.43;4.17;;;;;;;;;;5118664;28;20200;-75
2022/04/14 03:50:48;;;;;;;6.87;3.90;;;;;;;;;;5118526;28;20201;-75
2022/04/14 03:53:17;;;;;;;10.10;4.77;;;;;;;;;;5117848;28;20196;-76
2022/04/14 03:55:46;;;;;;;10.33;4.57;;;;;;;;;;5118615;28;20356;-76
2022/04/14 03:58:16;;;;;;;9.17;3.97;;;;;;;;;;5116703;28;20201;-75
2022/04/14 04:00:45;;;;;;;11.17;4.53;;;;;;;;;;5116896;28;20200;-75
2022/04/14 04:03:13;;;;;;;6.50;3.93;;;;;;;;;;5118086;28;20229;-75
2022/04/14 04:05:42;;;;;;;6.77;4.07;;;;;;;;;;5118586;28;20217;-74
2022/04/14 04:08:10;;;;;;;6.60;3.90;;;;;;;;;;5118419;28;20207;-75
2022/04/14 04:10:38;;;;;;;8.37;4.50;;;;;;;;;;5118178;28;20232;-75
2022/04/14 04:13:06;;;;;;;6.13;3.87;;;;;;;;;;5118459;28;20215;-75
2022/04/14 04:15:36;;;;;;;7.27;4.20;;;;;;;;;;5117774;27;20224;-75
2022/04/14 04:18:05;;;;;;;7.37;4.20;;;;;;;;;;5113738;28;20543;-75
2022/04/14 04:20:33;;;;;;;7.57;4.20;;;;;;;;;;5108805;28;20197;-75
2022/04/14 04:23:03;;;;;;;11.60;4.57;;;;;;;;;;5106246;28;20207;-75
2022/04/14 04:25:32;;;;;;;9.37;4.43;;;;;;;;;;5106265;28;20221;-75
2022/04/14 04:28:00;;;;;;;7.93;4.13;;;;;;;;;;5106758;27;20210;-76
2022/04/14 04:30:28;;;;;;;7.17;4.50;;;;;;;;;;5107495;28;20205;-77
2022/04/14 04:32:57;;;;;;;7.40;4.80;;;;;;;;;;5106864;28;20198;-75
2022/04/14 04:35:28;;;;;;;10.07;5.13;;;;;;;;;;5106566;28;20228;-76
2022/04/14 04:37:56;;;;;;;9.67;5.00;;;;;;;;;;5104289;28;20205;-76
2022/04/14 04:40:24;;;;;;;11.97;5.20;;;;;;;;;;5106994;28;20197;-76
2022/04/14 04:42:52;;;;;;;9.50;4.73;;;;;;;;;;5103684;28;20265;-77
2022/04/14 04:45:20;;;;;;;10.13;4.97;;;;;;;;;;5105338;28;20220;-75
2022/04/14 04:47:48;;;;;;;9.33;4.40;;;;;;;;;;5105214;28;20193;-75
2022/04/14 04:50:18;;;;;;;7.90;4.43;;;;;;;;;;5106968;28;20193;-75
2022/04/14 04:52:46;;;;;;;10.63;4.73;;;;;;;;;;5104018;28;20194;-77
2022/04/14 04:55:14;;;;;;;7.30;4.40;;;;;;;;;;5108312;28;20218;-76
2022/04/14 04:57:42;;;;;;;7.60;4.43;;;;;;;;;;5104216;28;20201;-76
2022/04/14 05:00:11;;;;;;;11.10;4.30;;;;;;;;;;5105107;28;20670;-76
2022/04/14 05:02:39;;;;;;;8.23;4.37;;;;;;;;;;5104680;28;20225;-76
2022/04/14 05:05:07;;;;;;;6.37;4.47;;;;;;;;;;5108878;28;20204;-76
2022/04/14 05:07:37;;;;;;;9.90;4.30;;;;;;;;;;5107156;28;20198;-76
2022/04/14 05:10:05;;;;;;;7.77;4.43;;;;;;;;;;5104374;28;20198;-76
2022/04/14 05:12:34;;;;;;;9.40;5.27;;;;;;;;;;5105087;28;20203;-76
2022/04/14 05:15:01;;;;;;;8.53;4.53;;;;;;;;;;5105057;28;20220;-75
2022/04/14 05:17:29;;;;;;;7.23;4.87;;;;;;;;;;5107242;28;20264;-76
2022/04/14 05:19:57;;;;;;;8.43;4.73;;;;;;;;;;5107527;28;20197;-76
2022/04/14 05:22:25;;;;;;;7.30;3.90;;;;;;;;;;5103799;28;20197;-76
2022/04/14 05:24:55;;;;;;;7.07;4.47;;;;;;;;;;5104627;28;20273;-75
2022/04/14 05:27:23;;;;;;;7.37;4.87;;;;;;;;;;5105788;28;20225;-76
2022/04/14 05:29:51;;;;;;;8.50;3.80;;;;;;;;;;5101932;28;20284;-75
2022/04/14 05:32:19;;;;;;;5.60;4.20;;;;;;;;;;5105968;28;20223;-75
2022/04/14 05:34:47;;;;;;;10.87;4.30;;;;;;;;;;5103459;28;20225;-75
2022/04/14 05:37:15;;;;;;;13.67;4.83;;;;;;;;;;5106196;28;20213;-76
2022/04/14 05:39:43;;;;;;;10.67;5.27;;;;;;;;;;5105380;28;20194;-74
2022/04/14 05:42:12;;;;;;;10.70;4.57;;;;;;;;;;5105474;28;20720;-71
2022/04/14 05:44:40;;;;;;;7.23;4.20;;;;;;;;;;5104070;28;20201;-72
2022/04/14 05:47:08;;;;;;;11.50;4.60;;;;;;;;;;5105678;28;20299;-73
2022/04/14 05:49:36;;;;;;;8.93;4.73;;;;;;;;;;5104004;28;20211;-68
2022/04/14 05:52:04;;;;;;;10.93;4.90;;;;;;;;;;5104564;28;20201;-72
2022/04/14 05:54:32;;;;;;;8.50;4.40;;;;;;;;;;5106215;28;20283;-74
2022/04/14 05:57:00;;;;;;;8.30;5.07;;;;;;;;;;5106814;28;20220;-73
2022/04/14 05:59:29;;;;;;;8.90;4.83;;;;;;;;;;5113535;27;20200;-70
2022/04/14 06:01:57;;;;;;;15.10;5.37;;;;;;;;;;5108978;28;20243;-72
2022/04/14 06:04:25;;;;;;;7.07;4.33;;;;;;;;;;5108763;27;20288;-73
2022/04/14 06:06:53;;;;;;;7.50;4.27;;;;;;;;;;5113656;27;20214;-72
2022/04/14 06:09:21;;;;;;;9.17;4.77;;;;;;;;;;5120752;27;20205;-72
2022/04/14 06:11:49;;;;;;;8.63;4.87;;;;;;;;;;5120770;28;20215;-72
2022/04/14 06:14:17;;;;;;;7.67;5.40;;;;;;;;;;5121669;28;20215;-72
2022/04/14 06:16:47;;;;;;;13.20;5.73;;;;;;;;;;5118961;28;20221;-72
2022/04/14 06:19:15;;;;;;;6.93;3.97;;;;;;;;;;5118689;28;20232;-73
2022/04/14 06:21:43;;;;;;;9.77;4.53;;;;;;;;;;5108190;28;20201;-73
2022/04/14 06:24:11;;;;;;;8.10;4.30;;;;;;;;;;5120435;27;20212;-72
2022/04/14 06:26:39;;;;;;;5.80;4.50;;;;;;;;;;5120935;28;20224;-77
2022/04/14 06:29:07;;;;;;;14.20;5.40;;;;;;;;;;5120525;28;20204;-79
2022/04/14 06:31:37;;;;;;;10.93;5.00;;;;;;;;;;5115543;27;20201;-78
2022/04/14 06:34:06;;;;;;;4.53;3.83;;;;;;;;;;5117667;27;20284;-78
2022/04/14 06:36:34;;;;;;;9.33;3.77;;;;;;;;;;5119757;28;20680;-76
2022/04/14 06:39:02;;;;;;;10.13;3.90;;;;;;;;;;5120919;28;20225;-79
2022/04/14 06:41:30;;;;;;;7.90;4.63;;;;;;;;;;5120991;28;20264;-72
2022/04/14 06:43:58;;;;;;;5.47;4.20;;;;;;;;;;5120819;28;20210;-75
2022/04/14 06:46:27;;;;;;;11.63;4.50;;;;;;;;;;5120460;27;20215;-78
2022/04/14 06:48:56;;;;;;;5.43;3.63;;;;;;;;;;5113251;28;20236;-78
2022/04/14 06:51:26;;;;;;;10.00;5.07;;;;;;;;;;5119999;28;20747;-77
2022/04/14 06:53:54;;;;;;;7.73;4.37;;;;;;;;;;5120504;28;20208;-78
2022/04/14 06:56:22;;;;;;;8.77;3.63;;;;;;;;;;5120440;28;20587;-78
2022/04/14 06:58:50;;;;;;;5.93;3.90;;;;;;;;;;5120369;28;20671;-78
2022/04/14 07:01:17;;;;;;;6.90;3.43;;;;;;;;;;5120804;28;20264;-78
2022/04/14 07:03:46;;;;;;;10.30;4.90;;;;;;;;;;5120650;28;20211;-78
2022/04/14 07:06:14;;;;;;;7.70;3.60;;;;;;;;;;5119975;28;20225;-77
2022/04/14 07:08:43;;;;;;;7.00;4.20;;;;;;;;;;5120010;28;20219;-78
2022/04/14 07:11:12;;;;;;;10.27;4.57;;;;;;;;;;5120397;28;20205;-78
2022/04/14 07:13:40;;;;;;;7.40;3.30;;;;;;;;;;5119791;28;20288;-77
2022/04/14 07:16:08;;;;;;;6.57;3.67;;;;;;;;;;5120191;28;20282;-77
2022/04/14 07:18:36;;;;;;;7.40;4.00;;;;;;;;;;5115128;28;20213;-77
2022/04/14 07:21:05;;;;;;;8.40;4.00;;;;;;;;;;5119855;28;20688;-78
2022/04/14 07:23:33;;;;;;;8.90;3.80;;;;;;;;;;5120104;28;20215;-78
2022/04/14 07:26:03;;;;;;;8.90;3.87;;;;;;;;;;5120094;28;20221;-78
2022/04/14 07:28:31;;;;;;;7.23;3.83;;;;;;;;;;5120109;28;20211;-78
2022/04/14 07:30:59;;;;;;;16.43;5.13;;;;;;;;;;5119613;28;20256;-77
2022/04/14 07:33:27;;;;;;;17.80;4.00;;;;;;;;;;5119788;28;20209;-78
2022/04/14 07:35:55;;;;;;;9.03;3.80;;;;;;;;;;5120009;28;20260;-77
2022/04/14 07:38:23;;;;;;;15.37;4.63;;;;;;;;;;5120004;28;20201;-78
2022/04/14 07:40:51;;;;;;;25.27;5.70;;;;;;;;;;5119878;28;20213;-78
2022/04/14 07:43:20;;;;;;;10.37;4.47;;;;;;;;;;5119608;28;20205;-78
2022/04/14 07:45:48;;;;;;;15.83;4.77;;;;;;;;;;5119675;28;20239;-77
2022/04/14 07:48:21;;;;;;;22.63;5.63;;;;;;;;;;5119760;28;20219;-78
2022/04/14 07:50:49;;;;;;;47.63;8.80;;;;;;;;;;5119688;28;20208;-78
2022/04/14 07:53:17;;;;;;;22.97;6.10;;;;;;;;;;5119529;28;20205;-77
2022/04/14 07:55:45;;;;;;;83.20;10.80;;;;;;;;;;5119556;28;20227;-78
2022/04/14 07:58:13;;;;;;;8.53;4.80;;;;;;;;;;5119379;28;20204;-78
2022/04/14 08:00:42;;;;;;;4.53;2.90;;;;;;;;;;5119824;28;20204;-77
2022/04/14 08:03:10;;;;;;;130.77;17.53;;;;;;;;;;5119167;28;20713;-78
2022/04/14 08:05:39;;;;;;;355.60;37.07;;;;;;;;;;5119420;28;20233;-78
2022/04/14 08:08:08;;;;;;;29.23;6.33;;;;;;;;;;5119057;28;20284;-78
2022/04/14 08:10:36;;;;;;;17.70;4.77;;;;;;;;;;5119128;28;20575;-78
2022/04/14 08:13:04;;;;;;;9.57;3.67;;;;;;;;;;5118839;28;20273;-78
2022/04/14 08:15:33;;;;;;;65.77;10.77;;;;;;;;;;5119067;28;20217;-78
2022/04/14 08:18:06;;;;;;;35.83;7.07;;;;;;;;;;5113824;28;20625;-78
2022/04/14 08:20:34;;;;;;;24.27;6.33;;;;;;;;;;5119487;28;20213;-77
2022/04/14 08:23:03;;;;;;;11.27;4.00;;;;;;;;;;5119146;28;20207;-78
2022/04/14 08:25:33;;;;;;;10.70;3.60;;;;;;;;;;5119100;28;20282;-78
2022/04/14 08:28:01;;;;;;;10.83;4.10;;;;;;;;;;5118953;28;20292;-78
2022/04/14 08:30:30;;;;;;;26.60;6.20;;;;;;;;;;5118128;28;20208;-78
2022/04/14 08:33:00;;;;;;;36.13;8.77;;;;;;;;;;5117138;28;20208;-78
2022/04/14 08:35:31;;;;;;;15.47;5.40;;;;;;;;;;5116561;28;20227;-78
2022/04/14 08:38:02;;;;;;;24.50;5.97;;;;;;;;;;5118487;28;20295;-78
2022/04/14 08:40:34;;;;;;;8.53;3.73;;;;;;;;;;5118711;28;20207;-77
2022/04/14 08:43:04;;;;;;;11.70;4.33;;;;;;;;;;5118442;28;20204;-77
2022/04/14 08:45:34;;;;;;;8.70;3.47;;;;;;;;;;5113305;28;20762;-78
2022/04/14 08:48:03;;;;;;;10.17;4.43;;;;;;;;;;5118497;28;20228;-78
2022/04/14 08:50:32;;;;;;;11.17;4.20;;;;;;;;;;5118130;28;20656;-78
2022/04/14 08:53:01;;;;;;;8.93;3.63;;;;;;;;;;5118606;28;20211;-78
2022/04/14 08:55:29;;;;;;;6.33;3.27;;;;;;;;;;5118206;28;20218;-78
2022/04/14 08:57:57;;;;;;;20.23;4.23;;;;;;;;;;5117913;28;20229;-78
2022/04/14 09:00:26;;;;;;;12.13;3.87;;;;;;;;;;5118246;28;20572;-78
2022/04/14 09:02:57;;;;;;;7.60;3.40;;;;;;;;;;5118336;28;20271;-78
2022/04/14 09:05:26;;;;;;;8.60;3.77;;;;;;;;;;5118033;28;20229;-78
2022/04/14 09:07:55;;;;;;;5.53;2.70;;;;;;;;;;5118450;28;20211;-78
2022/04/14 09:10:23;;;;;;;7.03;2.37;;;;;;;;;;5118165;28;20209;-78
2022/04/14 09:12:51;;;;;;;19.47;4.30;;;;;;;;;;5118104;28;20208;-77
2022/04/14 09:15:20;;;;;;;7.40;2.50;;;;;;;;;;5105345;28;20225;-77
2022/04/14 09:17:49;;;;;;;6.83;2.60;;;;;;;;;;5113189;28;20585;-77
2022/04/14 09:20:34;;;;;;;5.70;2.37;;;;;;;;;;5118167;28;20209;-78
2022/04/14 09:23:14;;;;;;;2.47;1.97;;;;;;;;;;5117718;28;20236;-78
2022/04/14 09:25:42;;;;;;;13.93;3.93;;;;;;;;;;5117959;28;20229;-78
2022/04/14 09:28:10;;;;;;;6.47;2.47;;;;;;;;;;5117952;28;20591;-79
2022/04/14 09:30:39;;;;;;;6.60;2.40;;;;;;;;;;5122211;28;20205;-78
2022/04/14 09:33:15;;;;;;;6.80;2.40;;;;;;;;;;5124973;28;20207;-78
2022/04/14 09:36:05;;;;;;;3.87;2.20;;;;;;;;;;5124774;28;20235;-78
2022/04/14 09:38:48;;;;;;;2.50;1.77;;;;;;;;;;5124761;28;20230;-78
2022/04/14 09:41:28;;;;;;;7.07;1.77;;;;;;;;;;5125040;28;20204;-78
2022/04/14 09:43:57;;;;;;;4.37;2.77;;;;;;;;;;5124451;28;20208;-79
2022/04/14 09:46:25;;;;;;;10.27;2.63;;;;;;;;;;5124933;28;20228;-78
2022/04/14 09:49:06;;;;;;;4.23;2.67;;;;;;;;;;5124772;28;20325;-78
2022/04/14 09:51:35;;;;;;;5.40;2.37;;;;;;;;;;5124548;28;20204;-78
2022/04/14 09:54:11;;;;;;;5.87;2.00;;;;;;;;;;5124407;28;20548;-78
2022/04/14 09:56:42;;;;;;;6.93;2.30;;;;;;;;;;5124139;28;20224;-77
2022/04/14 09:59:11;;;;;;;5.90;2.17;;;;;;;;;;5124907;28;20206;-78
2022/04/14 10:01:39;;;;;;;4.83;2.40;;;;;;;;;;5124378;28;20213;-78
2022/04/14 10:04:10;;;;;;;6.63;2.47;;;;;;;;;;5124475;28;20568;-78
2022/04/14 10:06:38;;;;;;;15.50;3.20;;;;;;;;;;5124384;28;21107;-78
2022/04/14 10:09:06;;;;;;;5.30;2.23;;;;;;;;;;5124693;28;20215;-78
2022/04/14 10:11:37;;;;;;;4.83;2.63;;;;;;;;;;5124161;28;20212;-78
2022/04/14 10:14:13;;;;;;;6.93;2.30;;;;;;;;;;5124445;28;20215;-78
2022/04/14 10:16:41;;;;;;;4.87;2.50;;;;;;;;;;5124677;28;20222;-78
2022/04/14 10:19:09;;;;;;;4.30;2.20;;;;;;;;;;5119231;28;20814;-78
2022/04/14 10:21:38;;;;;;;3.57;1.77;;;;;;;;;;5124312;28;20204;-78
2022/04/14 10:24:06;;;;;;;4.23;2.40;;;;;;;;;;5124628;28;20205;-77
2022/04/14 10:26:34;;;;;;;6.90;2.77;;;;;;;;;;5123973;28;20225;-78
2022/04/14 10:29:03;;;;;;;8.23;2.40;;;;;;;;;;5124099;28;20207;-78
2022/04/14 10:31:34;;;;;;;5.97;2.27;;;;;;;;;;5124294;28;20561;-78
2022/04/14 10:34:04;;;;;;;8.57;1.80;;;;;;;;;;5124375;28;20238;-78
2022/04/14 10:36:33;;;;;;;8.23;2.47;;;;;;;;;;5124544;28;20312;-78
2022/04/14 10:39:01;;;;;;;7.00;2.40;;;;;;;;;;5124271;28;20301;-78
2022/04/14 10:41:32;;;;;;;7.97;2.53;;;;;;;;;;5123049;28;20215;-79
2022/04/14 10:44:01;;;;;;;3.30;2.27;;;;;;;;;;5120851;28;20200;-77
2022/04/14 10:46:34;;;;;;;7.20;2.17;;;;;;;;;;5120928;28;20288;-78
2022/04/14 10:49:10;;;;;;;8.07;2.63;;;;;;;;;;5120849;28;20208;-78
2022/04/14 10:51:38;;;;;;;6.73;1.97;;;;;;;;;;5120800;28;20573;-78
2022/04/14 10:54:07;;;;;;;9.63;2.73;;;;;;;;;;5121075;28;20209;-77
2022/04/14 10:56:46;;;;;;;6.33;2.03;;;;;;;;;;5120474;28;20225;-78
2022/04/14 10:59:14;;;;;;;7.70;1.90;;;;;;;;;;5120968;28;20220;-78
2022/04/14 11:02:02;;;;;;;6.07;2.27;;;;;;;;;;5120376;28;20695;-77
2022/04/14 11:04:32;;;;;;;4.07;2.20;;;;;;;;;;5120870;28;20204;-78
2022/04/14 11:07:01;;;;;;;6.73;2.40;;;;;;;;;;5120536;28;20224;-78
2022/04/14 11:09:48;;;;;;;5.57;2.23;;;;;;;;;;5120383;28;20642;-78
2022/04/14 11:12:18;;;;;;;4.83;1.83;;;;;;;;;;5120639;28;20208;-78
2022/04/14 11:15:04;;;;;;;10.20;2.60;;;;;;;;;;5120571;28;20245;-78
2022/04/14 11:18:00;;;;;;;13.40;2.77;;;;;;;;;;5116872;28;20211;-78
2022/04/14 11:20:48;;;;;;;5.80;2.37;;;;;;;;;;5110098;28;20205;-78
2022/04/14 11:23:24;;;;;;;6.57;1.90;;;;;;;;;;5119843;28;20566;-78
2022/04/14 11:25:52;;;;;;;6.63;2.13;;;;;;;;;;5119759;28;20300;-77
2022/04/14 11:28:22;;;;;;;5.87;1.97;;;;;;;;;;5119841;28;20268;-78
2022/04/14 11:30:56;;;;;;;4.00;1.80;;;;;;;;;;5119990;28;20541;-78
2022/04/14 11:33:27;;;;;;;5.33;1.97;;;;;;;;;;5119951;28;20613;-78
2022/04/14 11:36:06;;;;;;;3.73;1.70;;;;;;;;;;5119804;28;20775;-77
2022/04/14 11:38:56;;;;;;;4.67;1.93;;;;;;;;;;5119820;28;20227;-78
2022/04/14 11:41:41;;;;;;;2.87;1.80;;;;;;;;;;5119525;28;20208;-78
2022/04/14 11:44:13;;;;;;;5.73;1.87;;;;;;;;;;5119542;28;20204;-78
2022/04/14 11:46:41;;;;;;;6.73;2.20;;;;;;;;;;5119882;28;20225;-78
2022/04/14 11:49:10;;;;;;;6.00;1.70;;;;;;;;;;5119798;28;20656;-78
2022/04/14 11:51:42;;;;;;;5.50;1.63;;;;;;;;;;5119558;28;20573;-78
2022/04/14 11:54:12;;;;;;;9.93;2.30;;;;;;;;;;5118830;28;20232;-78
2022/04/14 11:57:01;;;;;;;5.07;1.97;;;;;;;;;;5119048;28;20221;-78
2022/04/14 11:59:32;;;;;;;6.53;1.47;;;;;;;;;;5119372;28;20264;-77
2022/04/14 12:02:01;;;;;;;7.97;1.90;;;;;;;;;;5119412;28;20250;-78
2022/04/14 12:04:35;;;;;;;4.93;1.80;;;;;;;;;;5119441;28;20204;-78
2022/04/14 12:07:03;;;;;;;5.73;1.90;;;;;;;;;;5119780;28;20231;-78
2022/04/14 12:09:32;;;;;;;8.47;2.13;;;;;;;;;;5119873;28;20204;-78
2022/04/14 12:12:09;;;;;;;3.63;1.90;;;;;;;;;;5119773;28;20205;-77
2022/04/14 12:14:40;;;;;;;3.07;1.50;;;;;;;;;;5120136;28;20230;-77
2022/04/14 12:17:09;;;;;;;3.87;1.87;;;;;;;;;;5119477;28;20764;-78
2022/04/14 12:19:40;;;;;;;2.33;1.50;;;;;;;;;;5115387;28;20315;-77
2022/04/14 12:22:08;;;;;;;6.20;2.20;;;;;;;;;;5117072;28;20238;-77
2022/04/14 12:24:38;;;;;;;4.43;1.77;;;;;;;;;;5112832;28;20193;-77
2022/04/14 12:27:08;;;;;;;4.27;1.43;;;;;;;;;;5118305;28;20225;-76
2022/04/14 12:29:42;;;;;;;7.23;2.10;;;;;;;;;;5118399;28;20193;-76
2022/04/14 12:32:11;;;;;;;4.30;2.07;;;;;;;;;;5118375;28;20283;-76
2022/04/14 12:34:42;;;;;;;3.77;1.90;;;;;;;;;;5118209;28;20200;-74
2022/04/14 12:37:12;;;;;;;4.57;1.77;;;;;;;;;;5118023;28;20232;-74
2022/04/14 12:39:55;;;;;;;5.17;1.97;;;;;;;;;;5110824;28;20219;-74
2022/04/14 12:42:29;;;;;;;7.30;2.17;;;;;;;;;;5102689;28;20196;-74
2022/04/14 12:45:03;;;;;;;8.63;2.37;;;;;;;;;;5101214;28;20246;-74
2022/04/14 12:47:31;;;;;;;5.13;1.77;;;;;;;;;;5108692;28;20195;-74
2022/04/14 12:50:00;;;;;;;3.77;2.17;;;;;;;;;;5110752;28;20547;-75
2022/04/14 12:52:28;;;;;;;6.37;1.83;;;;;;;;;;5118591;28;20239;-75
2022/04/14 12:54:56;;;;;;;8.00;2.23;;;;;;;;;;5118301;28;20201;-75
2022/04/14 12:57:25;;;;;;;5.07;1.80;;;;;;;;;;5118409;28;20205;-76
2022/04/14 13:00:02;;;;;;;6.93;2.00;;;;;;;;;;5118860;28;20260;-75
2022/04/14 13:02:30;;;;;;;4.03;2.00;;;;;;;;;;5117672;28;20232;-76
2022/04/14 13:05:06;;;;;;;9.50;2.23;;;;;;;;;;5117888;28;20322;-76
2022/04/14 13:07:45;;;;;;;8.63;2.27;;;;;;;;;;5118361;28;20201;-76
2022/04/14 13:10:13;;;;;;;3.43;1.70;;;;;;;;;;5118391;28;20211;-76
2022/04/14 13:12:41;;;;;;;7.07;2.30;;;;;;;;;;5117623;28;20205;-76
2022/04/14 13:15:11;;;;;;;6.97;1.90;;;;;;;;;;5118199;28;20216;-76
2022/04/14 13:17:40;;;;;;;6.00;2.13;;;;;;;;;;5113237;28;20667;-76
2022/04/14 13:20:09;;;;;;;4.33;2.03;;;;;;;;;;5116370;28;20293;-76
2022/04/14 13:22:38;;;;;;;9.93;2.30;;;;;;;;;;5117767;28;20196;-76
2022/04/14 13:25:06;;;;;;;4.47;1.60;;;;;;;;;;5118139;28;20215;-76
2022/04/14 13:27:35;;;;;;;6.93;2.00;;;;;;;;;;5117782;28;20209;-76
2022/04/14 13:30:03;;;;;;;7.70;2.50;;;;;;;;;;5118401;28;20207;-76
2022/04/14 13:32:33;;;;;;;5.27;1.60;;;;;;;;;;5118098;28;20288;-76
2022/04/14 13:35:01;;;;;;;9.40;2.03;;;;;;;;;;5117804;28;20635;-76
2022/04/14 13:37:29;;;;;;;14.03;2.20;;;;;;;;;;5117919;28;20220;-76
2022/04/14 13:39:57;;;;;;;6.73;2.20;;;;;;;;;;5117813;28;20230;-76
2022/04/14 13:42:24;;;;;;;4.17;1.93;;;;;;;;;;5117861;28;20209;-76
2022/04/14 13:44:52;;;;;;;4.97;1.83;;;;;;;;;;5118028;28;20209;-76
2022/04/14 13:47:20;;;;;;;5.80;1.80;;;;;;;;;;5117837;28;20235;-76
2022/04/14 13:49:50;;;;;;;3.67;1.63;;;;;;;;;;5118056;28;20288;-74
2022/04/14 13:52:18;;;;;;;7.40;1.93;;;;;;;;;;5118037;28;20264;-74
2022/04/14 13:54:46;;;;;;;3.13;1.70;;;;;;;;;;5117687;28;20292;-74
2022/04/14 13:57:14;;;;;;;8.63;2.30;;;;;;;;;;5116989;28;20221;-75
2022/04/14 13:59:42;;;;;;;3.30;1.90;;;;;;;;;;5117638;28;20699;-74
2022/04/14 14:02:10;;;;;;;6.63;2.63;;;;;;;;;;5117424;28;20319;-75
2022/04/14 14:04:38;;;;;;;6.80;1.93;;;;;;;;;;5117914;28;20216;-74
2022/04/14 14:07:07;;;;;;;5.03;2.00;;;;;;;;;;5116904;28;20231;-75
2022/04/14 14:09:36;;;;;;;10.70;2.37;;;;;;;;;;5117421;28;20204;-74
2022/04/14 14:12:05;;;;;;;4.63;1.90;;;;;;;;;;5117345;28;20205;-74
2022/04/14 14:14:33;;;;;;;7.37;1.73;;;;;;;;;;5117663;28;20201;-74
2022/04/14 14:17:00;;;;;;;6.10;2.07;;;;;;;;;;5120140;28;20224;-74
2022/04/14 14:19:31;;;;;;;7.93;2.03;;;;;;;;;;5116544;28;20580;-74
2022/04/14 14:22:01;;;;;;;3.90;2.33;;;;;;;;;;5121382;28;20740;-74
2022/04/14 14:24:30;;;;;;;7.40;1.90;;;;;;;;;;5121406;28;20215;-73
2022/04/14 14:26:58;;;;;;;8.77;2.40;;;;;;;;;;5120740;28;20217;-74
2022/04/14 14:29:26;;;;;;;6.30;1.93;;;;;;;;;;5121126;28;20196;-74
2022/04/14 14:31:54;;;;;;;6.20;1.83;;;;;;;;;;5121067;28;20208;-74
2022/04/14 14:34:22;;;;;;;10.63;2.30;;;;;;;;;;5121386;28;20208;-69
2022/04/14 14:36:50;;;;;;;4.97;1.90;;;;;;;;;;5120894;27;20221;-70
2022/04/14 14:39:19;;;;;;;6.87;2.60;;;;;;;;;;5119379;27;20215;-68
2022/04/14 14:41:50;;;;;;;6.47;2.27;;;;;;;;;;5119433;28;20232;-69
2022/04/14 14:44:18;;;;;;;10.23;2.40;;;;;;;;;;5120145;28;20575;-69
2022/04/14 14:46:46;;;;;;;5.33;2.30;;;;;;;;;;5120244;28;20228;-69
2022/04/14 14:49:14;;;;;;;4.67;2.30;;;;;;;;;;5120276;28;20197;-69
2022/04/14 14:51:42;;;;;;;3.80;2.00;;;;;;;;;;5120407;28;20261;-69
2022/04/14 14:54:10;;;;;;;5.70;2.57;;;;;;;;;;5119456;28;20197;-69